createdAt,value
2018-04-17T00:01:04.322Z,99.90
2018-04-17T00:03:30.665Z,99.90
2018-04-17T00:05:56.903Z,99.90
2018-04-17T00:08:23.895Z,99.90
2018-04-17T00:10:50.167Z,99.90
2018-04-17T00:13:17.185Z,99.90
2018-04-17T00:15:43.522Z,99.90
2018-04-17T00:18:09.762Z,99.90
2018-04-17T00:20:36.059Z,99.90
2018-04-17T00:23:02.306Z,99.90
2018-04-17T00:25:28.570Z,99.90
2018-04-17T00:27:54.811Z,99.90
2018-04-17T00:30:21.075Z,99.90
2018-04-17T00:32:47.851Z,99.90
2018-04-17T00:35:14.202Z,99.90
2018-04-17T00:37:40.443Z,99.90
2018-04-17T00:40:06.738Z,99.90
2018-04-17T00:42:32.988Z,99.90
2018-04-17T00:44:59.255Z,99.90
2018-04-17T00:47:26.247Z,99.90
2018-04-17T00:49:52.515Z,99.90
2018-04-17T00:52:18.754Z,99.90
2018-04-17T00:54:46.067Z,99.90
2018-04-17T00:57:12.314Z,99.90
2018-04-17T00:59:39.471Z,99.90
2018-04-17T01:02:05.751Z,99.90
2018-04-17T01:04:32.694Z,99.90
2018-04-17T01:06:59.483Z,99.90
2018-04-17T01:09:26.226Z,99.90
2018-04-17T01:11:54.098Z,99.90
2018-04-17T01:14:21.449Z,99.90
2018-04-17T01:16:48.598Z,99.90
2018-04-17T01:19:15.442Z,99.90
2018-04-17T01:21:41.750Z,99.90
2018-04-17T01:24:08.107Z,99.90
2018-04-17T01:26:35.344Z,99.90
2018-04-17T01:29:01.595Z,99.90
2018-04-17T01:31:29.103Z,99.90
2018-04-17T01:33:55.343Z,99.90
2018-04-17T01:36:21.602Z,99.90
2018-04-17T01:38:47.846Z,99.90
2018-04-17T01:41:14.530Z,99.90
2018-04-17T01:43:40.805Z,99.90
2018-04-17T01:46:07.558Z,99.90
2018-04-17T01:48:33.802Z,99.90
2018-04-17T01:51:01.061Z,99.90
2018-04-17T01:53:28.070Z,99.90
2018-04-17T01:55:54.342Z,99.90
2018-04-17T01:58:21.326Z,99.90
2018-04-17T02:00:48.219Z,99.90
2018-04-17T02:03:15.214Z,99.90
2018-04-17T02:05:41.550Z,99.90
2018-04-17T02:08:07.849Z,99.90
2018-04-17T02:10:35.789Z,99.90
2018-04-17T02:13:02.034Z,99.90
2018-04-17T02:15:30.500Z,99.90
2018-04-17T02:17:56.751Z,99.90
2018-04-17T02:20:23.834Z,99.90
2018-04-17T02:22:50.099Z,99.90
2018-04-17T02:25:16.918Z,99.90
2018-04-17T02:27:43.165Z,99.90
2018-04-17T02:30:16.983Z,99.90
2018-04-17T02:32:43.226Z,99.90
2018-04-17T02:35:09.475Z,99.90
2018-04-17T02:37:36.487Z,99.90
2018-04-17T02:40:02.757Z,99.90
2018-04-17T02:42:29.031Z,99.90
2018-04-17T02:44:55.275Z,99.90
2018-04-17T02:47:21.552Z,99.90
2018-04-17T02:49:47.794Z,99.90
2018-04-17T02:52:14.070Z,99.90
2018-04-17T02:54:41.795Z,99.90
2018-04-17T02:57:08.071Z,99.90
2018-04-17T02:59:34.315Z,99.90
2018-04-17T03:02:01.345Z,99.90
2018-04-17T03:04:27.638Z,99.90
2018-04-17T03:06:54.465Z,99.90
2018-04-17T03:09:20.707Z,99.90
2018-04-17T03:11:47.928Z,99.90
2018-04-17T03:14:14.940Z,99.90
2018-04-17T03:16:48.639Z,99.90
2018-04-17T03:19:14.886Z,99.90
2018-04-17T03:21:41.179Z,99.90
2018-04-17T03:24:07.427Z,99.90
2018-04-17T03:26:33.695Z,99.90
2018-04-17T03:29:00.787Z,99.90
2018-04-17T03:31:27.062Z,99.90
2018-04-17T03:33:53.862Z,99.90
2018-04-17T03:36:21.079Z,99.90
2018-04-17T03:38:47.331Z,99.90
2018-04-17T03:41:13.600Z,99.90
2018-04-17T03:43:39.838Z,99.90
2018-04-17T03:46:06.847Z,99.90
2018-04-17T03:48:33.086Z,99.90
2018-04-17T03:50:59.358Z,99.90
2018-04-17T03:53:26.342Z,99.90
2018-04-17T03:55:52.620Z,99.90
2018-04-17T03:58:19.810Z,99.90
2018-04-17T04:00:46.100Z,99.90
2018-04-17T04:03:12.343Z,99.90
2018-04-17T04:05:39.354Z,99.90
2018-04-17T04:08:05.604Z,99.90
2018-04-17T04:10:31.898Z,99.90
2018-04-17T04:12:58.158Z,99.90
2018-04-17T04:15:25.203Z,99.90
2018-04-17T04:18:04.007Z,99.90
2018-04-17T04:20:42.663Z,99.90
2018-04-17T04:23:21.297Z,99.90
2018-04-17T04:26:00.915Z,99.90
2018-04-17T04:28:27.747Z,99.90
2018-04-17T04:30:54.034Z,99.90
2018-04-17T04:33:20.626Z,99.90
2018-04-17T04:35:46.961Z,99.90
2018-04-17T04:38:13.289Z,99.90
2018-04-17T04:40:39.554Z,99.90
2018-04-17T04:43:06.538Z,99.90
2018-04-17T04:45:33.502Z,99.90
2018-04-17T04:47:59.742Z,99.90
2018-04-17T04:50:26.010Z,99.90
2018-04-17T04:52:52.993Z,99.90
2018-04-17T04:55:19.239Z,99.90
2018-04-17T04:57:45.563Z,99.90
2018-04-17T05:00:11.791Z,99.90
2018-04-17T05:02:38.647Z,99.90
2018-04-17T05:05:05.670Z,99.90
2018-04-17T05:07:31.913Z,99.90
2018-04-17T05:09:58.262Z,99.90
2018-04-17T05:12:24.579Z,99.90
2018-04-17T05:14:50.851Z,99.90
2018-04-17T05:17:17.847Z,99.90
2018-04-17T05:19:44.186Z,99.90
2018-04-17T05:22:10.454Z,99.90
2018-04-17T05:24:37.519Z,99.90
2018-04-17T05:27:03.768Z,99.90
2018-04-17T05:29:30.010Z,99.90
2018-04-17T05:31:56.834Z,99.90
2018-04-17T05:34:23.078Z,99.90
2018-04-17T05:36:49.350Z,99.90
2018-04-17T05:39:15.590Z,99.90
2018-04-17T05:41:42.617Z,99.90
2018-04-17T05:44:08.862Z,99.90
2018-04-17T05:46:35.125Z,99.90
2018-04-17T05:49:01.366Z,99.90
2018-04-17T05:51:27.593Z,99.90
2018-04-17T05:53:53.791Z,99.90
2018-04-17T05:56:20.752Z,99.90
2018-04-17T05:58:47.705Z,99.90
2018-04-17T06:01:13.935Z,99.90
2018-04-17T06:03:40.195Z,99.90
2018-04-17T06:06:06.465Z,99.90
2018-04-17T06:08:33.399Z,99.90
2018-04-17T06:10:59.615Z,99.90
2018-04-17T06:13:25.807Z,99.90
2018-04-17T06:15:52.027Z,99.90
2018-04-17T06:18:18.222Z,99.90
2018-04-17T06:20:44.483Z,99.90
2018-04-17T06:23:10.703Z,99.90
2018-04-17T06:25:37.631Z,99.90
2018-04-17T06:28:03.848Z,99.90
2018-04-17T06:30:30.043Z,99.90
2018-04-17T06:32:56.250Z,99.90
2018-04-17T06:35:22.450Z,99.90
2018-04-17T06:37:49.427Z,99.90
2018-04-17T06:40:15.611Z,99.90
2018-04-17T06:42:41.826Z,99.90
2018-04-17T06:45:08.028Z,99.90
2018-04-17T06:47:34.294Z,99.90
2018-04-17T06:50:00.492Z,99.90
2018-04-17T06:52:26.691Z,99.90
2018-04-17T06:54:52.891Z,99.90
2018-04-17T06:57:19.131Z,99.90
2018-04-17T06:59:46.067Z,99.90
2018-04-17T07:02:12.313Z,99.90
2018-04-17T07:04:39.260Z,99.90
2018-04-17T07:07:06.191Z,99.90
2018-04-17T07:09:32.447Z,99.90
2018-04-17T07:11:58.639Z,99.90
2018-04-17T07:14:25.610Z,99.90
2018-04-17T07:16:52.551Z,99.90
2018-04-17T07:19:19.555Z,99.50
2018-04-17T07:21:45.747Z,99.50
2018-04-17T07:24:11.976Z,99.90
2018-04-17T07:26:38.162Z,99.70
2018-04-17T07:29:04.476Z,99.90
2018-04-17T07:31:30.672Z,99.50
2018-04-17T07:33:56.899Z,99.40
2018-04-17T07:36:23.111Z,99.30
2018-04-17T07:38:50.043Z,97.30
2018-04-17T07:41:17.014Z,96.10
2018-04-17T07:43:43.203Z,96.10
2018-04-17T07:46:09.415Z,94.90
2018-04-17T07:48:47.824Z,96.60
2018-04-17T07:51:14.111Z,93.70
2018-04-17T07:53:40.307Z,92.70
2018-04-17T07:56:06.523Z,92.00
2018-04-17T07:58:32.712Z,91.30
2018-04-17T08:00:58.927Z,91.30
2018-04-17T08:03:25.119Z,90.50
2018-04-17T08:05:51.333Z,90.40
2018-04-17T08:08:17.530Z,91.10
2018-04-17T08:10:43.771Z,87.00
2018-04-17T08:13:09.963Z,88.70
2018-04-17T08:15:36.918Z,83.10
2018-04-17T08:18:03.148Z,83.10
2018-04-17T08:20:29.383Z,82.50
2018-04-17T08:22:55.579Z,83.70
2018-04-17T08:25:22.551Z,80.00
2018-04-17T08:27:48.740Z,79.90
2018-04-17T08:30:14.960Z,81.40
2018-04-17T08:32:41.156Z,77.90
2018-04-17T08:35:07.376Z,76.40
2018-04-17T08:37:33.571Z,78.80
2018-04-17T08:40:00.723Z,71.40
2018-04-17T08:42:27.660Z,67.60
2018-04-17T08:44:53.846Z,67.70
2018-04-17T08:47:20.068Z,72.20
2018-04-17T08:49:46.258Z,65.80
2018-04-17T08:52:13.214Z,65.00
2018-04-17T08:54:39.407Z,65.10
2018-04-17T08:57:05.628Z,65.00
2018-04-17T08:59:31.829Z,64.60
2018-04-17T09:01:58.066Z,66.20
2018-04-17T09:04:24.314Z,63.60
2018-04-17T09:06:50.530Z,62.50
2018-04-17T09:09:17.057Z,64.50
2018-04-17T09:11:43.282Z,62.90
2018-04-17T09:14:09.475Z,64.00
2018-04-17T09:16:35.686Z,61.40
2018-04-17T09:19:02.203Z,63.10
2018-04-17T09:21:28.430Z,60.80
2018-04-17T09:23:54.642Z,60.90
2018-04-17T09:26:20.868Z,65.40
2018-04-17T09:28:47.062Z,65.20
2018-04-17T09:31:13.299Z,58.50
2018-04-17T09:33:39.487Z,60.90
2018-04-17T09:36:05.766Z,62.60
2018-04-17T09:38:32.659Z,60.40
2018-04-17T09:41:00.612Z,59.40
2018-04-17T09:43:26.794Z,59.40
2018-04-17T09:45:52.987Z,55.40
2018-04-17T09:48:19.201Z,56.60
2018-04-17T09:50:45.399Z,54.50
2018-04-17T09:53:11.615Z,55.40
2018-04-17T09:55:37.830Z,56.60
2018-04-17T09:58:04.050Z,54.80
2018-04-17T10:00:36.982Z,53.00
2018-04-17T10:03:03.511Z,53.00
2018-04-17T10:05:29.698Z,53.70
2018-04-17T10:07:56.651Z,52.50
2018-04-17T10:10:23.587Z,50.20
2018-04-17T10:12:50.559Z,50.10
2018-04-17T10:15:16.747Z,50.10
2018-04-17T10:17:44.444Z,51.50
2018-04-17T10:20:10.659Z,51.50
2018-04-17T10:22:37.658Z,51.90
2018-04-17T10:25:03.850Z,51.90
2018-04-17T10:27:30.079Z,54.10
2018-04-17T10:29:56.272Z,52.00
2018-04-17T10:32:22.782Z,52.00
2018-04-17T10:34:48.966Z,52.70
2018-04-17T10:37:15.939Z,51.90
2018-04-17T10:39:42.157Z,51.80
2018-04-17T10:42:08.416Z,52.40
2018-04-17T10:44:34.616Z,50.90
2018-04-17T10:47:00.858Z,50.80
2018-04-17T10:49:27.051Z,50.00
2018-04-17T10:51:54.015Z,51.60
2018-04-17T10:54:20.204Z,51.70
2018-04-17T10:56:46.427Z,51.20
2018-04-17T10:59:12.619Z,47.10
2018-04-17T11:01:38.879Z,49.80
2018-04-17T11:04:05.119Z,49.70
2018-04-17T11:06:31.299Z,49.30
2018-04-17T11:08:57.515Z,46.60
2018-04-17T11:11:23.710Z,46.60
2018-04-17T11:13:49.943Z,50.00
2018-04-17T11:16:16.876Z,48.40
2018-04-17T11:18:43.855Z,47.60
2018-04-17T11:21:10.813Z,48.60
2018-04-17T11:23:37.043Z,48.60
2018-04-17T11:26:03.234Z,48.40
2018-04-17T11:28:29.510Z,50.70
2018-04-17T11:30:55.699Z,50.40
2018-04-17T11:33:22.655Z,49.80
2018-04-17T11:35:49.586Z,51.60
2018-04-17T11:38:15.815Z,51.60
2018-04-17T11:40:42.760Z,48.80
2018-04-17T11:43:09.731Z,50.90
2018-04-17T11:45:35.918Z,50.80
2018-04-17T11:48:02.136Z,49.80
2018-04-17T11:50:28.327Z,50.60
2018-04-17T11:52:54.548Z,50.00
2018-04-17T11:55:20.740Z,50.80
2018-04-17T11:57:46.954Z,50.30
2018-04-17T12:00:13.150Z,49.90
2018-04-17T12:02:39.354Z,53.30
2018-04-17T12:05:06.315Z,52.40
2018-04-17T12:07:32.534Z,52.40
2018-04-17T12:09:58.732Z,51.10
2018-04-17T12:12:24.947Z,52.60
2018-04-17T12:14:51.134Z,53.00
2018-04-17T12:17:17.364Z,52.00
2018-04-17T12:19:43.636Z,52.10
2018-04-17T12:22:09.831Z,52.60
2018-04-17T12:24:36.034Z,54.50
2018-04-17T12:27:02.223Z,54.50
2018-04-17T12:29:28.434Z,51.50
2018-04-17T12:31:54.642Z,52.80
2018-04-17T12:34:20.855Z,52.10
2018-04-17T12:36:47.042Z,52.90
2018-04-17T12:39:13.255Z,52.50
2018-04-17T12:41:39.448Z,51.90
2018-04-17T12:44:05.659Z,52.50
2018-04-17T12:46:31.858Z,51.40
2018-04-17T12:48:58.066Z,50.10
2018-04-17T12:51:24.255Z,50.60
2018-04-17T12:53:50.463Z,50.40
2018-04-17T12:56:17.448Z,50.10
2018-04-17T12:58:43.666Z,50.10
2018-04-17T13:01:09.855Z,51.10
2018-04-17T13:03:36.818Z,50.40
2018-04-17T13:06:03.742Z,50.80
2018-04-17T13:08:29.931Z,50.80
2018-04-17T13:10:56.147Z,51.70
2018-04-17T13:13:22.339Z,52.30
2018-04-17T13:15:49.326Z,52.90
2018-04-17T13:18:15.523Z,52.80
2018-04-17T13:20:42.507Z,51.00
2018-04-17T13:23:08.691Z,51.00
2018-04-17T13:25:35.647Z,50.90
2018-04-17T13:28:02.575Z,52.70
2018-04-17T13:30:28.787Z,52.80
2018-04-17T13:32:54.979Z,50.80
2018-04-17T13:35:21.185Z,51.70
2018-04-17T13:37:47.378Z,51.90
2018-04-17T13:40:14.339Z,51.40
2018-04-17T13:42:41.291Z,53.10
2018-04-17T13:45:08.247Z,53.10
2018-04-17T13:47:35.180Z,54.20
2018-04-17T13:50:02.145Z,53.30
2018-04-17T13:52:28.339Z,53.30
2018-04-17T13:54:54.556Z,53.30
2018-04-17T13:57:20.807Z,52.50
2018-04-17T13:59:47.018Z,51.80
2018-04-17T14:02:13.207Z,50.90
2018-04-17T14:04:39.420Z,53.70
2018-04-17T14:07:05.619Z,53.80
2018-04-17T14:09:32.027Z,53.00
2018-04-17T14:11:58.219Z,54.00
2018-04-17T14:14:24.411Z,53.00
2018-04-17T14:16:51.371Z,53.50
2018-04-17T14:19:18.307Z,52.90
2018-04-17T14:21:45.283Z,53.70
2018-04-17T14:24:11.503Z,53.70
2018-04-17T14:26:37.715Z,52.10
2018-04-17T14:29:04.655Z,54.30
2018-04-17T14:31:31.631Z,53.60
2018-04-17T14:33:57.828Z,53.50
2018-04-17T14:36:24.779Z,53.00
2018-04-17T14:38:51.714Z,51.90
2018-04-17T14:41:18.690Z,54.10
2018-04-17T14:43:44.882Z,53.50
2018-04-17T14:46:11.087Z,55.00
2018-04-17T14:48:37.298Z,52.50
2018-04-17T14:51:03.517Z,54.10
2018-04-17T14:53:29.698Z,53.70
2018-04-17T14:55:56.012Z,51.70
2018-04-17T14:58:22.267Z,54.50
2018-04-17T15:00:48.903Z,52.00
2018-04-17T15:03:15.095Z,53.20
2018-04-17T15:05:41.298Z,55.80
2018-04-17T15:08:07.507Z,54.00
2018-04-17T15:10:34.443Z,53.70
2018-04-17T15:13:01.399Z,53.60
2018-04-17T15:15:28.329Z,56.10
2018-04-17T15:17:54.547Z,56.20
2018-04-17T15:20:20.756Z,56.30
2018-04-17T15:22:46.966Z,55.50
2018-04-17T15:25:13.155Z,54.20
2018-04-17T15:27:40.108Z,56.20
2018-04-17T15:30:07.104Z,56.20
2018-04-17T15:32:33.324Z,56.30
2018-04-17T15:34:59.523Z,55.50
2018-04-17T15:37:25.737Z,56.10
2018-04-17T15:39:52.666Z,55.90
2018-04-17T15:42:18.879Z,55.90
2018-04-17T15:44:45.066Z,56.90
2018-04-17T15:47:11.283Z,57.30
2018-04-17T15:49:37.899Z,57.20
2018-04-17T15:52:04.858Z,57.30
2018-04-17T15:54:31.791Z,56.60
2018-04-17T15:56:58.746Z,58.10
2018-04-17T15:59:25.763Z,57.40
2018-04-17T16:01:52.184Z,57.40
2018-04-17T16:04:18.377Z,59.50
2018-04-17T16:06:44.582Z,58.70
2018-04-17T16:09:11.549Z,59.90
2018-04-17T16:11:37.760Z,59.90
2018-04-17T16:14:04.719Z,62.40
2018-04-17T16:16:38.083Z,62.40
2018-04-17T16:19:05.049Z,61.10
2018-04-17T16:21:32.011Z,63.10
2018-04-17T16:23:58.231Z,62.90
2018-04-17T16:26:24.428Z,61.40
2018-04-17T16:28:50.639Z,62.50
2018-04-17T16:31:16.830Z,64.60
2018-04-17T16:33:43.047Z,65.10
2018-04-17T16:36:09.303Z,65.00
2018-04-17T16:38:35.524Z,68.20
2018-04-17T16:41:01.728Z,67.30
2018-04-17T16:43:27.942Z,64.00
2018-04-17T16:45:54.878Z,65.40
2018-04-17T16:48:21.104Z,65.40
2018-04-17T16:50:47.298Z,66.20
2018-04-17T16:53:13.515Z,66.00
2018-04-17T16:55:39.698Z,67.00
2018-04-17T16:58:06.811Z,66.30
2018-04-17T17:00:33.007Z,66.20
2018-04-17T17:02:59.191Z,67.70
2018-04-17T17:05:25.405Z,69.50
2018-04-17T17:07:51.594Z,70.90
2018-04-17T17:10:17.833Z,71.00
2018-04-17T17:12:44.026Z,71.30
2018-04-17T17:15:10.978Z,72.40
2018-04-17T17:17:37.907Z,71.90
2018-04-17T17:20:04.175Z,71.90
2018-04-17T17:22:30.364Z,72.70
2018-04-17T17:24:56.642Z,72.70
2018-04-17T17:27:22.855Z,73.70
2018-04-17T17:29:49.106Z,74.50
2018-04-17T17:32:15.298Z,74.40
2018-04-17T17:34:41.519Z,75.30
2018-04-17T17:37:08.451Z,75.90
2018-04-17T17:39:34.661Z,75.80
2018-04-17T17:42:00.851Z,76.90
2018-04-17T17:44:27.062Z,77.60
2018-04-17T17:46:54.014Z,79.00
2018-04-17T17:49:20.242Z,79.00
2018-04-17T17:51:46.462Z,79.20
2018-04-17T17:54:13.807Z,80.90
2018-04-17T17:56:40.763Z,82.00
2018-04-17T17:59:07.776Z,83.20
2018-04-17T18:01:33.983Z,83.20
2018-04-17T18:04:00.190Z,84.40
2018-04-17T18:06:26.412Z,85.70
2018-04-17T18:08:52.623Z,86.60
2018-04-17T18:11:19.579Z,90.10
2018-04-17T18:13:45.766Z,90.10
2018-04-17T18:16:12.723Z,97.10
2018-04-17T18:18:38.983Z,97.10
2018-04-17T18:21:05.222Z,99.90
2018-04-17T18:23:31.440Z,99.90
2018-04-17T18:25:57.659Z,99.90
2018-04-17T18:28:24.591Z,99.90
2018-04-17T18:30:50.806Z,99.90
2018-04-17T18:33:18.470Z,99.90
2018-04-17T18:35:46.167Z,99.90
2018-04-17T18:38:12.362Z,99.90
2018-04-17T18:40:40.065Z,99.90
2018-04-17T18:43:06.248Z,99.90
2018-04-17T18:45:32.468Z,99.90
2018-04-17T18:47:58.658Z,99.90
2018-04-17T18:50:24.875Z,99.90
2018-04-17T18:52:51.806Z,99.90
2018-04-17T18:55:19.102Z,99.90
2018-04-17T18:57:45.287Z,99.90
2018-04-17T19:00:12.344Z,99.90
2018-04-17T19:02:39.306Z,99.90
2018-04-17T19:05:05.519Z,99.90
2018-04-17T19:07:32.479Z,99.90
2018-04-17T19:09:58.672Z,99.90
2018-04-17T19:12:24.895Z,99.90
2018-04-17T19:14:52.561Z,99.90
2018-04-17T19:17:19.518Z,99.90
2018-04-17T19:19:46.474Z,99.90
2018-04-17T19:22:13.459Z,99.90
2018-04-17T19:24:39.686Z,99.90
2018-04-17T19:27:05.896Z,99.90
2018-04-17T19:29:32.087Z,99.90
2018-04-17T19:31:58.295Z,99.90
2018-04-17T19:34:24.491Z,99.90
2018-04-17T19:36:50.707Z,99.90
2018-04-17T19:39:16.903Z,99.90
2018-04-17T19:41:43.935Z,99.90
2018-04-17T19:44:10.126Z,99.90
2018-04-17T19:46:36.353Z,99.90
2018-04-17T19:49:02.539Z,99.90
2018-04-17T19:51:29.495Z,99.90
2018-04-17T19:53:56.843Z,99.90
2018-04-17T19:56:23.801Z,99.90
2018-04-17T19:58:50.743Z,99.90
2018-04-17T20:01:17.702Z,99.90
2018-04-17T20:03:43.899Z,99.90
2018-04-17T20:06:10.315Z,99.90
2018-04-17T20:08:36.503Z,99.90
2018-04-17T20:11:02.690Z,99.90
2018-04-17T20:13:28.899Z,99.90
2018-04-17T20:15:55.086Z,99.90
2018-04-17T20:18:21.303Z,99.90
2018-04-17T20:20:48.260Z,99.90
2018-04-17T20:23:14.535Z,99.90
2018-04-17T20:25:40.727Z,99.90
2018-04-17T20:28:06.955Z,99.90
2018-04-17T20:30:33.142Z,99.90
2018-04-17T20:33:00.103Z,99.90
2018-04-17T20:35:27.064Z,99.90
2018-04-17T20:37:53.279Z,99.90
2018-04-17T20:40:20.203Z,99.90
2018-04-17T20:42:47.899Z,99.90
2018-04-17T20:45:14.110Z,99.90
2018-04-17T20:47:41.068Z,99.90
2018-04-17T20:50:08.023Z,99.90
2018-04-17T20:52:34.242Z,99.90
2018-04-17T20:55:01.267Z,99.90
2018-04-17T20:57:28.226Z,99.90
2018-04-17T20:59:55.171Z,99.90
2018-04-17T21:02:22.123Z,99.90
2018-04-17T21:04:49.063Z,99.90
2018-04-17T21:07:16.010Z,99.90
2018-04-17T21:09:42.946Z,99.90
2018-04-17T21:12:09.163Z,99.90
2018-04-17T21:14:35.354Z,99.90
2018-04-17T21:17:01.614Z,99.90
2018-04-17T21:19:27.891Z,99.90
2018-04-17T21:21:54.123Z,99.90
2018-04-17T21:24:20.350Z,99.90
2018-04-17T21:26:46.555Z,99.90
2018-04-17T21:29:12.766Z,99.90
2018-04-17T21:31:38.963Z,99.90
2018-04-17T21:34:05.199Z,99.90
2018-04-17T21:36:31.393Z,99.90
2018-04-17T21:38:57.623Z,99.90
2018-04-17T21:41:24.556Z,99.90
2018-04-17T21:43:51.511Z,99.90
2018-04-17T21:46:18.443Z,99.90
2018-04-17T21:48:45.403Z,99.90
2018-04-17T21:51:11.594Z,99.90
2018-04-17T21:53:38.552Z,99.90
2018-04-17T21:56:05.486Z,99.90
2018-04-17T21:58:31.719Z,99.90
2018-04-17T22:00:57.910Z,99.90
2018-04-17T22:03:24.135Z,99.90
2018-04-17T22:05:50.322Z,99.90
2018-04-17T22:08:17.335Z,99.90
2018-04-17T22:10:43.543Z,99.90
2018-04-17T22:13:09.790Z,99.90
2018-04-17T22:15:35.983Z,99.90
2018-04-17T22:18:02.191Z,99.90
2018-04-17T22:20:29.152Z,99.90
2018-04-17T22:22:55.395Z,99.90
2018-04-17T22:25:21.631Z,99.90
2018-04-17T22:27:47.866Z,99.90
2018-04-17T22:30:14.080Z,99.90
2018-04-17T22:32:40.298Z,99.90
2018-04-17T22:35:06.496Z,99.90
2018-04-17T22:37:33.479Z,99.90
2018-04-17T22:39:59.692Z,99.90
2018-04-17T22:42:26.699Z,99.90
2018-04-17T22:44:52.906Z,99.90
2018-04-17T22:47:19.110Z,99.90
2018-04-17T22:49:45.345Z,99.90
2018-04-17T22:52:11.560Z,99.90
2018-04-17T22:54:37.852Z,99.90
2018-04-17T22:57:04.036Z,99.90
2018-04-17T22:59:30.332Z,99.90
2018-04-17T23:01:57.760Z,99.90
2018-04-17T23:04:23.971Z,99.90
2018-04-17T23:06:50.164Z,99.90
2018-04-17T23:09:16.387Z,99.90
2018-04-17T23:11:43.322Z,99.90
2018-04-17T23:14:10.275Z,99.90
2018-04-17T23:16:37.210Z,99.90
2018-04-17T23:19:04.166Z,99.90
2018-04-17T23:21:31.130Z,99.90
2018-04-17T23:23:57.347Z,99.90
2018-04-17T23:26:23.543Z,99.90
2018-04-17T23:28:49.795Z,99.90
2018-04-17T23:31:16.754Z,99.90
2018-04-17T23:33:43.366Z,99.90
2018-04-17T23:36:10.305Z,99.90
2018-04-17T23:38:37.974Z,99.90
2018-04-17T23:41:04.190Z,99.90
2018-04-17T23:43:30.423Z,99.90
2018-04-17T23:45:56.615Z,99.90
2018-04-17T23:48:22.842Z,99.90
2018-04-17T23:50:49.031Z,99.90
2018-04-17T23:53:15.963Z,99.90
2018-04-17T23:55:42.914Z,99.90
2018-04-17T23:58:09.111Z,99.90
